sensor_id;sensor_type;location;lat;lon;timestamp;P1;durP1;ratioP1;P2;durP2;ratioP2
80675;SDS011;70041;46.088;18.268;2023-09-08T00:02:16;7.68;;;3.40;;
80675;SDS011;70041;46.088;18.268;2023-09-08T00:04:41;9.47;;;3.47;;
80675;SDS011;70041;46.088;18.268;2023-09-08T00:07:07;9.57;;;3.37;;
80675;SDS011;70041;46.088;18.268;2023-09-08T00:09:32;8.23;;;3.50;;
80675;SDS011;70041;46.088;18.268;2023-09-08T00:11:58;7.33;;;3.30;;
80675;SDS011;70041;46.088;18.268;2023-09-08T00:14:23;9.20;;;4.18;;
80675;SDS011;70041;46.088;18.268;2023-09-08T00:16:49;7.83;;;3.47;;
80675;SDS011;70041;46.088;18.268;2023-09-08T00:19:19;7.18;;;3.20;;
80675;SDS011;70041;46.088;18.268;2023-09-08T00:21:44;8.30;;;3.27;;
80675;SDS011;70041;46.088;18.268;2023-09-08T00:24:10;8.63;;;3.40;;
80675;SDS011;70041;46.088;18.268;2023-09-08T00:26:36;6.93;;;3.65;;
80675;SDS011;70041;46.088;18.268;2023-09-08T00:29:01;8.00;;;3.40;;
80675;SDS011;70041;46.088;18.268;2023-09-08T00:31:26;6.93;;;3.30;;
80675;SDS011;70041;46.088;18.268;2023-09-08T00:33:52;7.53;;;3.67;;
80675;SDS011;70041;46.088;18.268;2023-09-08T00:36:17;9.27;;;3.57;;
80675;SDS011;70041;46.088;18.268;2023-09-08T00:38:44;9.30;;;3.45;;
80675;SDS011;70041;46.088;18.268;2023-09-08T00:41:09;7.17;;;3.30;;
80675;SDS011;70041;46.088;18.268;2023-09-08T00:43:34;9.57;;;3.40;;
80675;SDS011;70041;46.088;18.268;2023-09-08T00:46:00;8.03;;;3.20;;
80675;SDS011;70041;46.088;18.268;2023-09-08T00:48:27;7.72;;;3.58;;
80675;SDS011;70041;46.088;18.268;2023-09-08T00:50:53;6.90;;;3.22;;
80675;SDS011;70041;46.088;18.268;2023-09-08T00:53:19;8.60;;;3.40;;
80675;SDS011;70041;46.088;18.268;2023-09-08T00:55:44;7.53;;;3.53;;
80675;SDS011;70041;46.088;18.268;2023-09-08T00:58:11;7.73;;;3.17;;
80675;SDS011;70041;46.088;18.268;2023-09-08T01:00:37;8.35;;;3.53;;
80675;SDS011;70041;46.088;18.268;2023-09-08T01:03:02;7.57;;;3.30;;
80675;SDS011;70041;46.088;18.268;2023-09-08T01:05:28;7.40;;;3.10;;
80675;SDS011;70041;46.088;18.268;2023-09-08T01:07:54;8.77;;;3.78;;
80675;SDS011;70041;46.088;18.268;2023-09-08T01:10:20;9.77;;;3.23;;
80675;SDS011;70041;46.088;18.268;2023-09-08T01:12:46;9.00;;;3.47;;
80675;SDS011;70041;46.088;18.268;2023-09-08T01:15:12;8.03;;;3.60;;
80675;SDS011;70041;46.088;18.268;2023-09-08T01:17:38;8.65;;;3.47;;
80675;SDS011;70041;46.088;18.268;2023-09-08T01:20:15;8.52;;;3.35;;
80675;SDS011;70041;46.088;18.268;2023-09-08T01:25:35;9.60;;;3.55;;
80675;SDS011;70041;46.088;18.268;2023-09-08T01:28:07;8.18;;;3.78;;
80675;SDS011;70041;46.088;18.268;2023-09-08T01:30:34;8.20;;;3.55;;
80675;SDS011;70041;46.088;18.268;2023-09-08T01:33:01;9.18;;;3.60;;
80675;SDS011;70041;46.088;18.268;2023-09-08T01:35:26;8.43;;;3.57;;
80675;SDS011;70041;46.088;18.268;2023-09-08T01:37:52;7.55;;;3.50;;
80675;SDS011;70041;46.088;18.268;2023-09-08T01:40:17;7.87;;;3.60;;
80675;SDS011;70041;46.088;18.268;2023-09-08T01:42:47;7.15;;;3.13;;
80675;SDS011;70041;46.088;18.268;2023-09-08T01:45:13;8.60;;;3.50;;
80675;SDS011;70041;46.088;18.268;2023-09-08T01:47:38;7.77;;;3.33;;
80675;SDS011;70041;46.088;18.268;2023-09-08T01:50:04;9.40;;;3.27;;
80675;SDS011;70041;46.088;18.268;2023-09-08T01:52:30;7.53;;;3.42;;
80675;SDS011;70041;46.088;18.268;2023-09-08T01:54:55;7.10;;;3.03;;
80675;SDS011;70041;46.088;18.268;2023-09-08T01:57:20;8.00;;;3.27;;
80675;SDS011;70041;46.088;18.268;2023-09-08T01:59:46;7.60;;;3.50;;
80675;SDS011;70041;46.088;18.268;2023-09-08T02:02:12;8.15;;;3.63;;
80675;SDS011;70041;46.088;18.268;2023-09-08T02:04:38;8.50;;;3.50;;
80675;SDS011;70041;46.088;18.268;2023-09-08T02:07:03;7.47;;;3.40;;
80675;SDS011;70041;46.088;18.268;2023-09-08T02:09:33;7.57;;;3.75;;
80675;SDS011;70041;46.088;18.268;2023-09-08T02:11:59;7.30;;;3.58;;
80675;SDS011;70041;46.088;18.268;2023-09-08T02:14:25;7.95;;;3.92;;
80675;SDS011;70041;46.088;18.268;2023-09-08T02:16:52;8.98;;;3.50;;
80675;SDS011;70041;46.088;18.268;2023-09-08T02:19:21;8.87;;;3.57;;
80675;SDS011;70041;46.088;18.268;2023-09-08T02:21:47;8.65;;;3.47;;
80675;SDS011;70041;46.088;18.268;2023-09-08T02:24:12;7.67;;;3.50;;
80675;SDS011;70041;46.088;18.268;2023-09-08T02:26:38;8.13;;;3.50;;
80675;SDS011;70041;46.088;18.268;2023-09-08T02:29:04;7.03;;;3.25;;
80675;SDS011;70041;46.088;18.268;2023-09-08T02:31:29;7.53;;;2.87;;
80675;SDS011;70041;46.088;18.268;2023-09-08T02:33:55;7.22;;;3.03;;
80675;SDS011;70041;46.088;18.268;2023-09-08T02:36:20;8.77;;;3.43;;
80675;SDS011;70041;46.088;18.268;2023-09-08T02:38:51;6.93;;;3.30;;
80675;SDS011;70041;46.088;18.268;2023-09-08T02:41:16;10.05;;;3.13;;
80675;SDS011;70041;46.088;18.268;2023-09-08T02:43:42;7.17;;;3.00;;
80675;SDS011;70041;46.088;18.268;2023-09-08T02:46:07;8.67;;;3.77;;
80675;SDS011;70041;46.088;18.268;2023-09-08T02:48:34;8.70;;;3.15;;
80675;SDS011;70041;46.088;18.268;2023-09-08T02:51:00;10.43;;;3.63;;
80675;SDS011;70041;46.088;18.268;2023-09-08T02:53:25;7.13;;;3.00;;
80675;SDS011;70041;46.088;18.268;2023-09-08T02:55:53;8.10;;;3.60;;
80675;SDS011;70041;46.088;18.268;2023-09-08T02:58:19;6.60;;;3.10;;
80675;SDS011;70041;46.088;18.268;2023-09-08T03:00:45;8.63;;;3.20;;
80675;SDS011;70041;46.088;18.268;2023-09-08T03:03:10;10.53;;;3.73;;
80675;SDS011;70041;46.088;18.268;2023-09-08T03:05:35;7.73;;;3.43;;
80675;SDS011;70041;46.088;18.268;2023-09-08T03:08:02;8.18;;;3.40;;
80675;SDS011;70041;46.088;18.268;2023-09-08T03:10:28;7.95;;;3.30;;
80675;SDS011;70041;46.088;18.268;2023-09-08T03:12:53;6.50;;;3.27;;
80675;SDS011;70041;46.088;18.268;2023-09-08T03:15:20;7.03;;;3.50;;
80675;SDS011;70041;46.088;18.268;2023-09-08T03:17:45;8.90;;;3.50;;
80675;SDS011;70041;46.088;18.268;2023-09-08T03:20:11;8.63;;;3.47;;
80675;SDS011;70041;46.088;18.268;2023-09-08T03:22:38;7.17;;;3.30;;
80675;SDS011;70041;46.088;18.268;2023-09-08T03:25:04;7.95;;;4.00;;
80675;SDS011;70041;46.088;18.268;2023-09-08T03:27:30;7.40;;;3.35;;
80675;SDS011;70041;46.088;18.268;2023-09-08T03:29:56;6.47;;;3.17;;
80675;SDS011;70041;46.088;18.268;2023-09-08T03:32:21;9.83;;;3.57;;
80675;SDS011;70041;46.088;18.268;2023-09-08T03:34:47;7.20;;;3.17;;
80675;SDS011;70041;46.088;18.268;2023-09-08T03:37:12;8.90;;;3.57;;
80675;SDS011;70041;46.088;18.268;2023-09-08T03:39:37;8.17;;;3.70;;
80675;SDS011;70041;46.088;18.268;2023-09-08T03:42:03;8.17;;;3.50;;
80675;SDS011;70041;46.088;18.268;2023-09-08T03:44:28;8.43;;;3.70;;
80675;SDS011;70041;46.088;18.268;2023-09-08T03:46:54;8.37;;;3.33;;
80675;SDS011;70041;46.088;18.268;2023-09-08T03:49:19;8.53;;;3.50;;
80675;SDS011;70041;46.088;18.268;2023-09-08T03:51:45;7.97;;;3.47;;
80675;SDS011;70041;46.088;18.268;2023-09-08T03:54:10;8.83;;;3.70;;
80675;SDS011;70041;46.088;18.268;2023-09-08T03:56:35;11.80;;;3.80;;
80675;SDS011;70041;46.088;18.268;2023-09-08T03:59:01;8.13;;;3.50;;
80675;SDS011;70041;46.088;18.268;2023-09-08T04:01:26;8.93;;;3.90;;
80675;SDS011;70041;46.088;18.268;2023-09-08T04:03:52;7.30;;;3.50;;
80675;SDS011;70041;46.088;18.268;2023-09-08T04:06:17;7.53;;;3.63;;
80675;SDS011;70041;46.088;18.268;2023-09-08T04:08:42;8.25;;;3.45;;
80675;SDS011;70041;46.088;18.268;2023-09-08T04:11:08;9.03;;;3.90;;
80675;SDS011;70041;46.088;18.268;2023-09-08T04:13:33;9.03;;;3.80;;
80675;SDS011;70041;46.088;18.268;2023-09-08T04:15:58;8.90;;;3.63;;
80675;SDS011;70041;46.088;18.268;2023-09-08T04:18:24;8.77;;;3.70;;
80675;SDS011;70041;46.088;18.268;2023-09-08T04:20:49;9.40;;;4.23;;
80675;SDS011;70041;46.088;18.268;2023-09-08T04:23:15;9.37;;;3.90;;
80675;SDS011;70041;46.088;18.268;2023-09-08T04:25:40;10.33;;;4.33;;
80675;SDS011;70041;46.088;18.268;2023-09-08T04:28:05;8.80;;;3.87;;
80675;SDS011;70041;46.088;18.268;2023-09-08T04:30:31;7.77;;;3.73;;
80675;SDS011;70041;46.088;18.268;2023-09-08T04:32:56;8.10;;;3.63;;
80675;SDS011;70041;46.088;18.268;2023-09-08T04:35:22;8.60;;;3.47;;
80675;SDS011;70041;46.088;18.268;2023-09-08T04:37:49;8.30;;;3.93;;
80675;SDS011;70041;46.088;18.268;2023-09-08T04:40:15;10.18;;;4.07;;
80675;SDS011;70041;46.088;18.268;2023-09-08T04:42:40;8.90;;;3.80;;
80675;SDS011;70041;46.088;18.268;2023-09-08T04:45:05;8.38;;;4.03;;
80675;SDS011;70041;46.088;18.268;2023-09-08T04:47:31;7.17;;;3.53;;
80675;SDS011;70041;46.088;18.268;2023-09-08T04:49:57;8.32;;;3.90;;
80675;SDS011;70041;46.088;18.268;2023-09-08T04:52:22;8.27;;;3.40;;
80675;SDS011;70041;46.088;18.268;2023-09-08T04:54:48;9.00;;;3.97;;
80675;SDS011;70041;46.088;18.268;2023-09-08T04:57:13;9.03;;;4.60;;
80675;SDS011;70041;46.088;18.268;2023-09-08T04:59:39;8.57;;;4.40;;
80675;SDS011;70041;46.088;18.268;2023-09-08T05:02:04;9.02;;;4.40;;
80675;SDS011;70041;46.088;18.268;2023-09-08T05:04:30;9.53;;;4.63;;
80675;SDS011;70041;46.088;18.268;2023-09-08T05:06:55;8.00;;;4.10;;
80675;SDS011;70041;46.088;18.268;2023-09-08T05:09:20;7.90;;;4.10;;
80675;SDS011;70041;46.088;18.268;2023-09-08T05:11:46;9.47;;;4.10;;
80675;SDS011;70041;46.088;18.268;2023-09-08T05:14:11;8.43;;;4.43;;
80675;SDS011;70041;46.088;18.268;2023-09-08T05:16:37;12.70;;;4.50;;
80675;SDS011;70041;46.088;18.268;2023-09-08T05:19:10;12.00;;;4.28;;
80675;SDS011;70041;46.088;18.268;2023-09-08T05:21:36;13.90;;;5.47;;
80675;SDS011;70041;46.088;18.268;2023-09-08T05:24:02;18.13;;;5.80;;
80675;SDS011;70041;46.088;18.268;2023-09-08T05:26:28;13.50;;;5.47;;
80675;SDS011;70041;46.088;18.268;2023-09-08T05:28:53;15.67;;;6.30;;
80675;SDS011;70041;46.088;18.268;2023-09-08T05:31:18;12.95;;;7.03;;
80675;SDS011;70041;46.088;18.268;2023-09-08T05:33:44;14.47;;;5.70;;
80675;SDS011;70041;46.088;18.268;2023-09-08T05:36:09;9.97;;;5.73;;
80675;SDS011;70041;46.088;18.268;2023-09-08T05:38:34;12.60;;;4.93;;
80675;SDS011;70041;46.088;18.268;2023-09-08T05:41:00;10.93;;;5.00;;
80675;SDS011;70041;46.088;18.268;2023-09-08T05:43:25;9.50;;;3.70;;
80675;SDS011;70041;46.088;18.268;2023-09-08T05:45:51;8.97;;;4.33;;
80675;SDS011;70041;46.088;18.268;2023-09-08T05:48:16;8.70;;;4.10;;
80675;SDS011;70041;46.088;18.268;2023-09-08T05:50:42;12.30;;;4.37;;
80675;SDS011;70041;46.088;18.268;2023-09-08T05:53:07;8.50;;;4.30;;
80675;SDS011;70041;46.088;18.268;2023-09-08T05:55:33;8.80;;;4.67;;
80675;SDS011;70041;46.088;18.268;2023-09-08T05:57:58;11.37;;;4.43;;
80675;SDS011;70041;46.088;18.268;2023-09-08T06:00:24;9.32;;;4.38;;
80675;SDS011;70041;46.088;18.268;2023-09-08T06:02:49;9.57;;;3.90;;
80675;SDS011;70041;46.088;18.268;2023-09-08T06:05:15;11.03;;;4.47;;
80675;SDS011;70041;46.088;18.268;2023-09-08T06:07:40;11.80;;;4.00;;
80675;SDS011;70041;46.088;18.268;2023-09-08T06:10:06;12.63;;;4.07;;
80675;SDS011;70041;46.088;18.268;2023-09-08T06:12:31;8.43;;;4.33;;
80675;SDS011;70041;46.088;18.268;2023-09-08T06:14:57;9.53;;;4.80;;
80675;SDS011;70041;46.088;18.268;2023-09-08T06:17:22;10.68;;;4.75;;
80675;SDS011;70041;46.088;18.268;2023-09-08T06:19:47;15.53;;;4.83;;
80675;SDS011;70041;46.088;18.268;2023-09-08T06:22:13;8.30;;;3.60;;
80675;SDS011;70041;46.088;18.268;2023-09-08T06:24:38;8.13;;;3.90;;
80675;SDS011;70041;46.088;18.268;2023-09-08T06:27:04;8.32;;;3.83;;
80675;SDS011;70041;46.088;18.268;2023-09-08T06:29:29;9.20;;;4.00;;
80675;SDS011;70041;46.088;18.268;2023-09-08T06:31:54;10.20;;;4.07;;
80675;SDS011;70041;46.088;18.268;2023-09-08T06:34:20;10.97;;;4.47;;
80675;SDS011;70041;46.088;18.268;2023-09-08T06:36:47;11.00;;;4.25;;
80675;SDS011;70041;46.088;18.268;2023-09-08T06:39:13;9.00;;;4.00;;
80675;SDS011;70041;46.088;18.268;2023-09-08T06:41:38;7.55;;;3.63;;
80675;SDS011;70041;46.088;18.268;2023-09-08T06:44:04;8.07;;;3.60;;
80675;SDS011;70041;46.088;18.268;2023-09-08T06:46:29;8.33;;;3.50;;
80675;SDS011;70041;46.088;18.268;2023-09-08T06:48:55;8.60;;;3.45;;
80675;SDS011;70041;46.088;18.268;2023-09-08T06:51:20;7.93;;;3.37;;
80675;SDS011;70041;46.088;18.268;2023-09-08T06:53:53;10.60;;;3.63;;
80675;SDS011;70041;46.088;18.268;2023-09-08T06:56:22;7.47;;;3.80;;
80675;SDS011;70041;46.088;18.268;2023-09-08T06:58:47;11.23;;;3.70;;
80675;SDS011;70041;46.088;18.268;2023-09-08T07:01:13;11.63;;;4.20;;
80675;SDS011;70041;46.088;18.268;2023-09-08T07:03:38;10.20;;;3.72;;
80675;SDS011;70041;46.088;18.268;2023-09-08T07:06:04;11.43;;;3.60;;
80675;SDS011;70041;46.088;18.268;2023-09-08T07:08:29;8.23;;;3.47;;
80675;SDS011;70041;46.088;18.268;2023-09-08T07:10:54;9.47;;;3.93;;
80675;SDS011;70041;46.088;18.268;2023-09-08T07:13:20;8.45;;;3.42;;
80675;SDS011;70041;46.088;18.268;2023-09-08T07:15:46;10.53;;;3.73;;
80675;SDS011;70041;46.088;18.268;2023-09-08T07:18:11;10.40;;;3.57;;
80675;SDS011;70041;46.088;18.268;2023-09-08T07:20:36;9.90;;;3.67;;
80675;SDS011;70041;46.088;18.268;2023-09-08T07:23:02;11.68;;;4.07;;
80675;SDS011;70041;46.088;18.268;2023-09-08T07:25:28;10.90;;;4.23;;
80675;SDS011;70041;46.088;18.268;2023-09-08T07:27:53;9.13;;;4.13;;
80675;SDS011;70041;46.088;18.268;2023-09-08T07:30:19;7.00;;;3.70;;
80675;SDS011;70041;46.088;18.268;2023-09-08T07:32:45;7.85;;;3.70;;
80675;SDS011;70041;46.088;18.268;2023-09-08T07:35:10;7.93;;;3.60;;
80675;SDS011;70041;46.088;18.268;2023-09-08T07:37:40;17.65;;;5.40;;
80675;SDS011;70041;46.088;18.268;2023-09-08T07:40:07;10.23;;;4.17;;
80675;SDS011;70041;46.088;18.268;2023-09-08T07:42:34;20.40;;;6.63;;
80675;SDS011;70041;46.088;18.268;2023-09-08T07:44:59;33.77;;;9.70;;
80675;SDS011;70041;46.088;18.268;2023-09-08T07:47:25;12.70;;;4.60;;
80675;SDS011;70041;46.088;18.268;2023-09-08T07:49:50;24.63;;;6.37;;
80675;SDS011;70041;46.088;18.268;2023-09-08T07:52:16;11.00;;;3.97;;
80675;SDS011;70041;46.088;18.268;2023-09-08T07:54:41;8.40;;;3.83;;
80675;SDS011;70041;46.088;18.268;2023-09-08T07:57:07;35.08;;;7.57;;
80675;SDS011;70041;46.088;18.268;2023-09-08T07:59:32;14.20;;;4.23;;
80675;SDS011;70041;46.088;18.268;2023-09-08T08:01:58;10.93;;;4.07;;
80675;SDS011;70041;46.088;18.268;2023-09-08T08:04:23;8.50;;;4.03;;
80675;SDS011;70041;46.088;18.268;2023-09-08T08:06:49;8.10;;;3.90;;
80675;SDS011;70041;46.088;18.268;2023-09-08T08:09:16;9.20;;;3.60;;
80675;SDS011;70041;46.088;18.268;2023-09-08T08:11:42;9.90;;;4.90;;
80675;SDS011;70041;46.088;18.268;2023-09-08T08:14:07;7.53;;;3.30;;
80675;SDS011;70041;46.088;18.268;2023-09-08T08:16:33;7.30;;;3.50;;
80675;SDS011;70041;46.088;18.268;2023-09-08T08:18:58;9.57;;;4.20;;
80675;SDS011;70041;46.088;18.268;2023-09-08T08:21:24;9.43;;;3.97;;
80675;SDS011;70041;46.088;18.268;2023-09-08T08:23:50;10.17;;;3.93;;
80675;SDS011;70041;46.088;18.268;2023-09-08T08:26:16;10.05;;;4.07;;
80675;SDS011;70041;46.088;18.268;2023-09-08T08:28:42;7.43;;;3.53;;
80675;SDS011;70041;46.088;18.268;2023-09-08T08:31:08;8.67;;;3.80;;
80675;SDS011;70041;46.088;18.268;2023-09-08T08:33:33;7.78;;;4.13;;
80675;SDS011;70041;46.088;18.268;2023-09-08T08:35:59;11.67;;;3.97;;
80675;SDS011;70041;46.088;18.268;2023-09-08T08:38:25;8.50;;;3.97;;
80675;SDS011;70041;46.088;18.268;2023-09-08T08:40:50;7.87;;;3.60;;
80675;SDS011;70041;46.088;18.268;2023-09-08T08:43:16;11.20;;;3.30;;
80675;SDS011;70041;46.088;18.268;2023-09-08T08:45:42;9.53;;;3.70;;
80675;SDS011;70041;46.088;18.268;2023-09-08T08:48:08;8.17;;;3.20;;
80675;SDS011;70041;46.088;18.268;2023-09-08T08:50:34;6.07;;;2.80;;
80675;SDS011;70041;46.088;18.268;2023-09-08T08:53:00;8.65;;;3.40;;
80675;SDS011;70041;46.088;18.268;2023-09-08T08:55:29;8.07;;;3.27;;
80675;SDS011;70041;46.088;18.268;2023-09-08T08:57:55;7.97;;;3.50;;
80675;SDS011;70041;46.088;18.268;2023-09-08T09:00:27;8.75;;;3.70;;
80675;SDS011;70041;46.088;18.268;2023-09-08T09:02:54;7.22;;;3.20;;
80675;SDS011;70041;46.088;18.268;2023-09-08T09:05:20;9.07;;;3.15;;
80675;SDS011;70041;46.088;18.268;2023-09-08T09:07:46;8.70;;;3.67;;
80675;SDS011;70041;46.088;18.268;2023-09-08T09:10:13;10.02;;;3.83;;
80675;SDS011;70041;46.088;18.268;2023-09-08T09:12:39;28.77;;;5.72;;
80675;SDS011;70041;46.088;18.268;2023-09-08T09:15:04;21.33;;;5.00;;
80675;SDS011;70041;46.088;18.268;2023-09-08T09:17:34;14.93;;;5.00;;
80675;SDS011;70041;46.088;18.268;2023-09-08T09:20:13;66.90;;;9.70;;
80675;SDS011;70041;46.088;18.268;2023-09-08T09:22:46;59.70;;;12.82;;
80675;SDS011;70041;46.088;18.268;2023-09-08T09:25:20;16.02;;;5.22;;
80675;SDS011;70041;46.088;18.268;2023-09-08T09:27:53;17.70;;;5.50;;
80675;SDS011;70041;46.088;18.268;2023-09-08T09:30:20;12.98;;;3.95;;
80675;SDS011;70041;46.088;18.268;2023-09-08T09:32:47;22.48;;;4.72;;
80675;SDS011;70041;46.088;18.268;2023-09-08T09:35:14;12.98;;;4.05;;
80675;SDS011;70041;46.088;18.268;2023-09-08T09:37:41;21.00;;;4.45;;
80675;SDS011;70041;46.088;18.268;2023-09-08T09:40:06;8.07;;;2.97;;
80675;SDS011;70041;46.088;18.268;2023-09-08T09:42:34;7.85;;;3.30;;
80675;SDS011;70041;46.088;18.268;2023-09-08T09:45:04;6.65;;;3.38;;
80675;SDS011;70041;46.088;18.268;2023-09-08T09:47:30;8.70;;;3.30;;
80675;SDS011;70041;46.088;18.268;2023-09-08T09:49:55;7.70;;;3.50;;
80675;SDS011;70041;46.088;18.268;2023-09-08T09:52:23;7.38;;;3.55;;
80675;SDS011;70041;46.088;18.268;2023-09-08T09:54:52;7.97;;;3.60;;
80675;SDS011;70041;46.088;18.268;2023-09-08T09:57:20;6.45;;;3.10;;
80675;SDS011;70041;46.088;18.268;2023-09-08T09:59:46;7.40;;;3.63;;
80675;SDS011;70041;46.088;18.268;2023-09-08T10:02:15;6.55;;;2.72;;
80675;SDS011;70041;46.088;18.268;2023-09-08T10:04:41;8.30;;;3.25;;
80675;SDS011;70041;46.088;18.268;2023-09-08T10:07:07;7.05;;;3.30;;
80675;SDS011;70041;46.088;18.268;2023-09-08T10:09:34;7.47;;;3.43;;
80675;SDS011;70041;46.088;18.268;2023-09-08T10:12:05;8.48;;;3.42;;
80675;SDS011;70041;46.088;18.268;2023-09-08T10:14:35;8.27;;;3.30;;
80675;SDS011;70041;46.088;18.268;2023-09-08T10:17:01;6.38;;;3.30;;
80675;SDS011;70041;46.088;18.268;2023-09-08T10:19:27;7.43;;;3.00;;
80675;SDS011;70041;46.088;18.268;2023-09-08T10:21:59;8.40;;;3.33;;
80675;SDS011;70041;46.088;18.268;2023-09-08T10:24:29;7.63;;;3.10;;
80675;SDS011;70041;46.088;18.268;2023-09-08T10:27:04;6.47;;;3.08;;
80675;SDS011;70041;46.088;18.268;2023-09-08T10:29:31;8.77;;;3.65;;
80675;SDS011;70041;46.088;18.268;2023-09-08T10:31:57;7.10;;;3.40;;
80675;SDS011;70041;46.088;18.268;2023-09-08T10:34:24;8.80;;;3.50;;
80675;SDS011;70041;46.088;18.268;2023-09-08T10:36:51;9.40;;;4.13;;
80675;SDS011;70041;46.088;18.268;2023-09-08T10:39:27;6.65;;;3.08;;
80675;SDS011;70041;46.088;18.268;2023-09-08T10:45:02;7.87;;;3.57;;
80675;SDS011;70041;46.088;18.268;2023-09-08T10:50:15;8.23;;;3.83;;
80675;SDS011;70041;46.088;18.268;2023-09-08T10:52:41;8.65;;;3.45;;
80675;SDS011;70041;46.088;18.268;2023-09-08T10:55:07;7.53;;;3.50;;
80675;SDS011;70041;46.088;18.268;2023-09-08T10:57:33;7.45;;;3.03;;
80675;SDS011;70041;46.088;18.268;2023-09-08T11:00:00;7.33;;;3.33;;
80675;SDS011;70041;46.088;18.268;2023-09-08T11:02:34;7.38;;;3.20;;
80675;SDS011;70041;46.088;18.268;2023-09-08T11:05:19;7.43;;;3.20;;
80675;SDS011;70041;46.088;18.268;2023-09-08T11:07:47;10.68;;;3.35;;
80675;SDS011;70041;46.088;18.268;2023-09-08T11:10:17;7.70;;;3.42;;
80675;SDS011;70041;46.088;18.268;2023-09-08T11:12:43;8.97;;;3.37;;
80675;SDS011;70041;46.088;18.268;2023-09-08T11:15:08;7.73;;;3.40;;
80675;SDS011;70041;46.088;18.268;2023-09-08T11:17:35;6.20;;;2.90;;
80675;SDS011;70041;46.088;18.268;2023-09-08T11:20:04;7.57;;;3.22;;
80675;SDS011;70041;46.088;18.268;2023-09-08T11:22:33;7.10;;;3.40;;
80675;SDS011;70041;46.088;18.268;2023-09-08T11:25:00;7.55;;;3.42;;
80675;SDS011;70041;46.088;18.268;2023-09-08T11:27:27;6.53;;;3.10;;
80675;SDS011;70041;46.088;18.268;2023-09-08T11:29:53;6.85;;;3.20;;
80675;SDS011;70041;46.088;18.268;2023-09-08T11:32:19;7.15;;;3.30;;
80675;SDS011;70041;46.088;18.268;2023-09-08T11:34:44;6.83;;;3.03;;
80675;SDS011;70041;46.088;18.268;2023-09-08T11:37:14;7.87;;;3.20;;
80675;SDS011;70041;46.088;18.268;2023-09-08T11:39:41;7.57;;;3.30;;
80675;SDS011;70041;46.088;18.268;2023-09-08T11:42:08;7.53;;;3.30;;
80675;SDS011;70041;46.088;18.268;2023-09-08T11:44:35;7.85;;;3.30;;
80675;SDS011;70041;46.088;18.268;2023-09-08T11:47:01;6.73;;;3.23;;
80675;SDS011;70041;46.088;18.268;2023-09-08T11:49:33;8.25;;;3.55;;
80675;SDS011;70041;46.088;18.268;2023-09-08T11:51:59;8.35;;;3.20;;
80675;SDS011;70041;46.088;18.268;2023-09-08T11:54:25;6.57;;;3.40;;
80675;SDS011;70041;46.088;18.268;2023-09-08T11:56:50;7.38;;;3.30;;
80675;SDS011;70041;46.088;18.268;2023-09-08T11:59:17;6.90;;;3.65;;
80675;SDS011;70041;46.088;18.268;2023-09-08T12:01:42;7.00;;;3.40;;
80675;SDS011;70041;46.088;18.268;2023-09-08T12:04:13;7.80;;;3.40;;
80675;SDS011;70041;46.088;18.268;2023-09-08T12:06:42;9.00;;;3.40;;
80675;SDS011;70041;46.088;18.268;2023-09-08T12:09:07;6.53;;;3.20;;
80675;SDS011;70041;46.088;18.268;2023-09-08T12:11:33;7.37;;;3.57;;
80675;SDS011;70041;46.088;18.268;2023-09-08T12:14:07;7.00;;;3.30;;
80675;SDS011;70041;46.088;18.268;2023-09-08T12:16:33;7.78;;;3.53;;
80675;SDS011;70041;46.088;18.268;2023-09-08T12:18:59;7.77;;;3.10;;
80675;SDS011;70041;46.088;18.268;2023-09-08T12:21:24;6.90;;;3.20;;
80675;SDS011;70041;46.088;18.268;2023-09-08T12:23:50;7.97;;;3.40;;
80675;SDS011;70041;46.088;18.268;2023-09-08T12:26:17;6.82;;;3.30;;
80675;SDS011;70041;46.088;18.268;2023-09-08T12:28:43;8.52;;;3.38;;
80675;SDS011;70041;46.088;18.268;2023-09-08T12:31:09;6.25;;;2.75;;
80675;SDS011;70041;46.088;18.268;2023-09-08T12:33:35;7.15;;;3.22;;
80675;SDS011;70041;46.088;18.268;2023-09-08T12:36:23;8.93;;;3.57;;
80675;SDS011;70041;46.088;18.268;2023-09-08T12:38:50;6.53;;;3.10;;
80675;SDS011;70041;46.088;18.268;2023-09-08T12:41:16;7.50;;;3.20;;
80675;SDS011;70041;46.088;18.268;2023-09-08T12:43:42;6.70;;;3.20;;
80675;SDS011;70041;46.088;18.268;2023-09-08T12:46:07;7.97;;;3.17;;
80675;SDS011;70041;46.088;18.268;2023-09-08T12:48:33;6.07;;;2.83;;
80675;SDS011;70041;46.088;18.268;2023-09-08T12:50:58;8.03;;;3.30;;
80675;SDS011;70041;46.088;18.268;2023-09-08T12:53:24;8.00;;;3.80;;
80675;SDS011;70041;46.088;18.268;2023-09-08T12:55:50;9.60;;;3.47;;
80675;SDS011;70041;46.088;18.268;2023-09-08T12:58:16;7.73;;;3.63;;
80675;SDS011;70041;46.088;18.268;2023-09-08T13:00:42;8.57;;;3.38;;
80675;SDS011;70041;46.088;18.268;2023-09-08T13:03:08;7.90;;;3.20;;
80675;SDS011;70041;46.088;18.268;2023-09-08T13:05:34;8.10;;;3.03;;
80675;SDS011;70041;46.088;18.268;2023-09-08T13:08:00;6.87;;;3.00;;
80675;SDS011;70041;46.088;18.268;2023-09-08T13:10:25;6.67;;;3.20;;
80675;SDS011;70041;46.088;18.268;2023-09-08T13:12:51;6.97;;;3.22;;
80675;SDS011;70041;46.088;18.268;2023-09-08T13:15:16;6.43;;;2.87;;
80675;SDS011;70041;46.088;18.268;2023-09-08T13:17:42;9.60;;;3.67;;
80675;SDS011;70041;46.088;18.268;2023-09-08T13:20:07;10.03;;;3.23;;
80675;SDS011;70041;46.088;18.268;2023-09-08T13:22:33;5.90;;;3.00;;
80675;SDS011;70041;46.088;18.268;2023-09-08T13:24:59;7.50;;;3.40;;
80675;SDS011;70041;46.088;18.268;2023-09-08T13:27:24;6.70;;;3.50;;
80675;SDS011;70041;46.088;18.268;2023-09-08T13:29:50;6.90;;;3.63;;
80675;SDS011;70041;46.088;18.268;2023-09-08T13:32:15;9.80;;;3.50;;
80675;SDS011;70041;46.088;18.268;2023-09-08T13:34:42;7.32;;;3.28;;
80675;SDS011;70041;46.088;18.268;2023-09-08T13:37:08;8.38;;;3.00;;
80675;SDS011;70041;46.088;18.268;2023-09-08T13:39:34;10.13;;;3.27;;
80675;SDS011;70041;46.088;18.268;2023-09-08T13:41:59;9.13;;;3.08;;
80675;SDS011;70041;46.088;18.268;2023-09-08T13:44:26;7.57;;;3.20;;
80675;SDS011;70041;46.088;18.268;2023-09-08T13:46:52;8.98;;;3.15;;
80675;SDS011;70041;46.088;18.268;2023-09-08T13:49:18;7.85;;;3.22;;
80675;SDS011;70041;46.088;18.268;2023-09-08T13:51:45;8.13;;;3.30;;
80675;SDS011;70041;46.088;18.268;2023-09-08T13:54:11;6.93;;;3.28;;
80675;SDS011;70041;46.088;18.268;2023-09-08T13:56:40;6.95;;;3.25;;
80675;SDS011;70041;46.088;18.268;2023-09-08T13:59:06;7.30;;;3.33;;
80675;SDS011;70041;46.088;18.268;2023-09-08T14:01:32;7.70;;;2.95;;
80675;SDS011;70041;46.088;18.268;2023-09-08T14:03:59;6.50;;;3.45;;
80675;SDS011;70041;46.088;18.268;2023-09-08T14:06:25;7.20;;;3.50;;
80675;SDS011;70041;46.088;18.268;2023-09-08T14:08:51;6.68;;;3.17;;
80675;SDS011;70041;46.088;18.268;2023-09-08T14:11:17;8.00;;;3.20;;
80675;SDS011;70041;46.088;18.268;2023-09-08T14:13:42;6.97;;;3.10;;
80675;SDS011;70041;46.088;18.268;2023-09-08T14:16:08;5.57;;;2.80;;
80675;SDS011;70041;46.088;18.268;2023-09-08T14:18:34;8.20;;;3.23;;
80675;SDS011;70041;46.088;18.268;2023-09-08T14:20:59;7.75;;;3.42;;
80675;SDS011;70041;46.088;18.268;2023-09-08T14:23:25;7.60;;;2.93;;
80675;SDS011;70041;46.088;18.268;2023-09-08T14:25:51;7.15;;;3.53;;
80675;SDS011;70041;46.088;18.268;2023-09-08T14:28:16;7.33;;;3.20;;
80675;SDS011;70041;46.088;18.268;2023-09-08T14:30:42;7.82;;;3.13;;
80675;SDS011;70041;46.088;18.268;2023-09-08T14:33:07;8.97;;;3.00;;
80675;SDS011;70041;46.088;18.268;2023-09-08T14:35:35;8.83;;;3.57;;
80675;SDS011;70041;46.088;18.268;2023-09-08T14:38:00;8.52;;;3.50;;